createdAt,value
2023-06-30T00:00:16.799Z,71.44
2023-06-30T00:02:48.151Z,71.58
2023-06-30T00:05:15.019Z,71.95
2023-06-30T00:07:43.805Z,72.45
2023-06-30T00:10:11.659Z,74.26
2023-06-30T00:12:38.396Z,72.48
2023-06-30T00:15:05.901Z,73.04
2023-06-30T00:17:33.101Z,73.06
2023-06-30T00:20:00.510Z,73.64
2023-06-30T00:22:27.929Z,74.31
2023-06-30T00:24:56.092Z,75.23
2023-06-30T00:27:25.690Z,74.04
2023-06-30T00:29:52.610Z,75.06
2023-06-30T00:32:20.970Z,75.61
2023-06-30T00:34:47.759Z,75.61
2023-06-30T00:37:15.829Z,74.97
2023-06-30T00:39:42.469Z,74.09
2023-06-30T00:42:09.588Z,74.34
2023-06-30T00:44:37.278Z,75.89
2023-06-30T00:47:07.154Z,75.42
2023-06-30T00:49:34.953Z,75.36
2023-06-30T00:52:02.029Z,75.39
2023-06-30T00:54:28.781Z,74.94
2023-06-30T00:56:59.392Z,74.97
2023-06-30T00:59:26.433Z,75.11
2023-06-30T01:02:17.817Z,75.22
2023-06-30T01:05:04.057Z,75.46
2023-06-30T01:07:51.918Z,75.82
2023-06-30T01:10:33.265Z,75.98
2023-06-30T01:13:03.156Z,75.70
2023-06-30T01:15:30.367Z,77.34
2023-06-30T01:18:03.486Z,75.68
2023-06-30T01:20:34.575Z,77.26
2023-06-30T01:23:15.622Z,77.50
2023-06-30T01:25:43.551Z,77.50
2023-06-30T01:28:17.629Z,77.15
2023-06-30T01:30:44.661Z,76.85
2023-06-30T01:33:12.338Z,76.32
2023-06-30T01:35:39.036Z,77.79
2023-06-30T01:38:05.949Z,78.72
2023-06-30T01:40:32.819Z,78.10
2023-06-30T01:43:06.081Z,78.68
2023-06-30T01:45:34.185Z,77.72
2023-06-30T01:48:07.924Z,76.85
2023-06-30T01:50:35.907Z,77.82
2023-06-30T01:53:05.771Z,77.99
2023-06-30T01:55:33.239Z,77.63
2023-06-30T01:58:00.126Z,76.70
2023-06-30T02:00:35.338Z,77.47
2023-06-30T02:03:02.441Z,77.82
2023-06-30T02:05:34.683Z,77.42
2023-06-30T02:08:01.490Z,77.41
2023-06-30T02:10:28.596Z,76.78
2023-06-30T02:12:56.109Z,77.36
2023-06-30T02:15:23.181Z,77.80
2023-06-30T02:17:49.940Z,77.91
2023-06-30T02:20:17.453Z,77.30
2023-06-30T02:22:44.158Z,77.38
2023-06-30T02:25:11.018Z,77.45
2023-06-30T02:27:37.691Z,77.73
2023-06-30T02:30:06.885Z,77.70
2023-06-30T02:32:41.582Z,78.61
2023-06-30T02:35:09.805Z,77.58
2023-06-30T02:37:39.954Z,78.40
2023-06-30T02:40:07.405Z,79.48
2023-06-30T02:42:35.986Z,78.63
2023-06-30T02:45:03.406Z,77.98
2023-06-30T02:47:30.260Z,77.36
2023-06-30T02:49:57.425Z,76.67
2023-06-30T02:52:24.028Z,77.49
2023-06-30T02:54:51.791Z,77.20
2023-06-30T02:57:20.454Z,78.16
2023-06-30T02:59:47.524Z,77.79
2023-06-30T03:02:15.016Z,77.62
2023-06-30T03:04:42.580Z,76.88
2023-06-30T03:07:09.747Z,76.81
2023-06-30T03:09:39.675Z,77.46
2023-06-30T03:12:06.804Z,77.29
2023-06-30T03:14:36.090Z,77.29
2023-06-30T03:17:03.184Z,77.71
2023-06-30T03:19:30.948Z,78.54
2023-06-30T03:22:00.431Z,77.92
2023-06-30T03:24:27.279Z,76.84
2023-06-30T03:26:54.127Z,78.26
2023-06-30T03:29:24.805Z,76.91
2023-06-30T03:31:53.541Z,77.36
2023-06-30T03:34:20.433Z,79.52
2023-06-30T03:36:47.374Z,78.65
2023-06-30T03:39:16.531Z,78.55
2023-06-30T03:41:45.031Z,79.08
2023-06-30T03:44:12.534Z,78.22
2023-06-30T03:46:39.152Z,77.49
2023-06-30T03:49:05.736Z,77.73
2023-06-30T03:51:33.322Z,77.26
2023-06-30T03:54:00.362Z,78.65
2023-06-30T03:56:27.391Z,77.22
2023-06-30T03:58:54.037Z,78.73
2023-06-30T04:01:22.402Z,77.46
2023-06-30T04:03:52.006Z,76.28
2023-06-30T04:06:18.938Z,77.00
2023-06-30T04:08:46.822Z,76.16
2023-06-30T04:11:13.654Z,77.55
2023-06-30T04:13:40.206Z,77.49
2023-06-30T04:16:07.149Z,76.83
2023-06-30T04:18:35.245Z,77.78
2023-06-30T04:21:01.861Z,78.57
2023-06-30T04:23:28.701Z,77.48
2023-06-30T04:25:55.452Z,76.99
2023-06-30T04:28:22.132Z,75.97
2023-06-30T04:30:48.965Z,75.29
2023-06-30T04:33:15.619Z,75.39
2023-06-30T04:35:45.278Z,75.70
2023-06-30T04:38:12.421Z,75.39
2023-06-30T04:40:39.117Z,74.28
2023-06-30T04:43:12.601Z,74.02
2023-06-30T04:45:43.737Z,73.09
2023-06-30T04:48:10.645Z,70.81
2023-06-30T04:50:37.860Z,70.11
2023-06-30T04:53:04.565Z,65.04
2023-06-30T04:55:31.264Z,60.90
2023-06-30T04:57:57.965Z,58.92
2023-06-30T05:00:25.057Z,56.85
2023-06-30T05:02:55.664Z,55.95
2023-06-30T05:05:22.238Z,53.19
2023-06-30T05:07:48.962Z,51.79
2023-06-30T05:10:15.764Z,53.49
2023-06-30T05:12:42.741Z,53.36
2023-06-30T05:15:09.711Z,51.67
2023-06-30T05:17:36.565Z,51.27
2023-06-30T05:20:09.073Z,51.28
2023-06-30T05:22:36.279Z,49.81
2023-06-30T05:25:03.515Z,50.89
2023-06-30T05:27:31.280Z,50.17
2023-06-30T05:29:57.960Z,49.75
2023-06-30T05:32:24.655Z,49.78
2023-06-30T05:34:51.368Z,45.14
2023-06-30T05:37:18.042Z,43.95
2023-06-30T05:39:44.759Z,47.52
2023-06-30T05:42:13.780Z,47.00
2023-06-30T05:44:40.516Z,46.04
2023-06-30T05:47:07.476Z,44.95
2023-06-30T05:49:34.479Z,45.60
2023-06-30T05:52:01.104Z,46.09
2023-06-30T05:54:27.696Z,45.11
2023-06-30T05:56:54.588Z,44.57
2023-06-30T05:59:21.215Z,44.60
2023-06-30T06:01:47.904Z,45.70
2023-06-30T06:04:14.641Z,45.67
2023-06-30T06:06:41.556Z,45.35
2023-06-30T06:09:08.399Z,45.30
2023-06-30T06:11:35.102Z,44.57
2023-06-30T06:14:01.714Z,45.63
2023-06-30T06:16:28.435Z,43.26
2023-06-30T06:18:55.340Z,44.30
2023-06-30T06:21:31.090Z,43.86
2023-06-30T06:23:58.213Z,43.13
2023-06-30T06:26:25.008Z,43.68
2023-06-30T06:28:52.341Z,44.12
2023-06-30T06:31:19.098Z,44.81
2023-06-30T06:33:45.781Z,43.58
2023-06-30T06:36:12.589Z,41.66
2023-06-30T06:38:39.585Z,39.99
2023-06-30T06:41:06.577Z,41.83
2023-06-30T06:43:33.454Z,43.32
2023-06-30T06:46:00.265Z,41.20
2023-06-30T06:48:28.940Z,42.39
2023-06-30T06:51:00.493Z,41.05
2023-06-30T06:53:35.973Z,39.34
2023-06-30T06:56:04.485Z,41.30
2023-06-30T06:58:32.917Z,39.28
2023-06-30T07:01:00.272Z,40.62
2023-06-30T07:03:27.588Z,39.88
2023-06-30T07:05:54.982Z,38.96
2023-06-30T07:08:21.724Z,39.32
2023-06-30T07:10:49.519Z,40.38
2023-06-30T07:13:18.286Z,41.29
2023-06-30T07:15:49.585Z,40.21
2023-06-30T07:18:20.189Z,39.09
2023-06-30T07:20:48.471Z,37.12
2023-06-30T07:23:15.586Z,38.66
2023-06-30T07:25:44.371Z,38.97
2023-06-30T07:28:11.739Z,39.33
2023-06-30T07:30:44.189Z,40.33
2023-06-30T07:33:12.087Z,38.59
2023-06-30T07:35:39.280Z,36.85
2023-06-30T07:38:06.239Z,36.58
2023-06-30T07:40:50.367Z,38.07
2023-06-30T07:43:19.794Z,38.20
2023-06-30T07:46:16.716Z,38.74
2023-06-30T07:51:36.770Z,36.58
2023-06-30T07:57:11.991Z,35.82
2023-06-30T07:59:39.233Z,38.53
2023-06-30T08:08:53.039Z,36.71
2023-06-30T08:11:22.822Z,36.20
2023-06-30T08:14:48.739Z,36.30
2023-06-30T08:20:23.007Z,34.14
2023-06-30T08:23:27.806Z,31.20
2023-06-30T08:35:03.303Z,33.88
2023-06-30T08:40:28.160Z,32.29
2023-06-30T08:46:26.353Z,32.80
2023-06-30T08:52:37.703Z,32.67
2023-06-30T08:55:26.445Z,35.05
2023-06-30T08:58:17.379Z,34.12
2023-06-30T09:01:05.452Z,32.62
2023-06-30T09:03:41.739Z,32.50
2023-06-30T09:06:40.630Z,33.34
2023-06-30T09:12:01.915Z,34.57
2023-06-30T09:17:18.911Z,35.15
2023-06-30T09:19:47.148Z,35.14
2023-06-30T09:22:53.909Z,34.45
2023-06-30T09:25:51.949Z,35.02
2023-06-30T09:28:22.069Z,34.72
2023-06-30T09:30:53.698Z,33.29
2023-06-30T09:33:29.665Z,33.72
2023-06-30T09:36:05.427Z,35.55
2023-06-30T09:42:14.126Z,34.69
2023-06-30T09:57:14.012Z,33.44
2023-06-30T09:59:40.951Z,32.62
2023-06-30T10:06:02.024Z,31.62
2023-06-30T10:08:33.165Z,31.28
2023-06-30T10:14:06.366Z,34.03
2023-06-30T10:16:37.013Z,33.59
2023-06-30T10:19:06.435Z,33.67
2023-06-30T10:24:50.219Z,32.11
2023-06-30T10:27:24.994Z,31.57
2023-06-30T10:30:02.722Z,33.46
2023-06-30T10:32:43.085Z,36.23
2023-06-30T10:35:17.191Z,36.37
2023-06-30T10:37:47.820Z,35.62
2023-06-30T10:47:09.421Z,36.78
2023-06-30T10:50:25.872Z,36.84
2023-06-30T10:52:55.823Z,35.04
2023-06-30T10:55:33.744Z,34.70
2023-06-30T10:58:06.666Z,34.94
2023-06-30T11:01:02.190Z,34.35
2023-06-30T11:04:29.203Z,33.41
2023-06-30T11:07:11.489Z,34.20
2023-06-30T11:13:37.396Z,35.16
2023-06-30T11:16:05.207Z,35.04
2023-06-30T11:22:36.420Z,34.25
2023-06-30T11:25:58.973Z,35.06
2023-06-30T11:28:44.746Z,34.44
2023-06-30T11:31:13.067Z,34.20
2023-06-30T11:33:41.200Z,34.67
2023-06-30T11:36:18.477Z,34.85
2023-06-30T11:42:04.808Z,34.81
2023-06-30T11:50:58.053Z,34.61
2023-06-30T11:53:30.770Z,34.83
2023-06-30T11:56:25.622Z,34.41
2023-06-30T11:58:59.234Z,33.85
2023-06-30T12:08:02.513Z,33.69
2023-06-30T12:10:53.823Z,33.09
2023-06-30T12:19:46.858Z,33.70
2023-06-30T12:22:50.434Z,33.37
2023-06-30T12:38:28.129Z,34.07
2023-06-30T13:00:33.328Z,34.54
2023-06-30T13:03:02.179Z,35.17
2023-06-30T13:05:31.457Z,34.00
2023-06-30T13:07:58.383Z,32.91
2023-06-30T13:10:26.366Z,33.30
2023-06-30T13:12:53.909Z,33.37
2023-06-30T13:15:20.584Z,32.91
2023-06-30T13:17:47.414Z,32.95
2023-06-30T13:20:13.969Z,33.16
2023-06-30T13:22:50.840Z,33.15
2023-06-30T13:25:27.775Z,32.85
2023-06-30T13:27:54.449Z,32.71
2023-06-30T13:30:36.602Z,33.18
2023-06-30T13:33:03.460Z,33.23
2023-06-30T13:46:34.944Z,34.25
2023-06-30T13:49:01.672Z,33.13
2023-06-30T13:51:28.245Z,33.58
2023-06-30T13:53:55.051Z,33.23
2023-06-30T13:56:21.641Z,33.03
2023-06-30T13:58:48.385Z,33.65
2023-06-30T14:01:15.125Z,33.81
2023-06-30T14:03:43.700Z,32.95
2023-06-30T14:06:12.337Z,32.81
2023-06-30T14:08:39.217Z,32.99
2023-06-30T14:11:06.068Z,33.24
2023-06-30T14:13:32.937Z,33.37
2023-06-30T14:15:59.495Z,33.01
2023-06-30T14:18:28.463Z,32.75
2023-06-30T14:20:55.211Z,32.61
2023-06-30T14:23:21.999Z,32.42
2023-06-30T14:25:49.118Z,33.39
2023-06-30T14:28:15.966Z,32.85
2023-06-30T14:30:42.549Z,33.30
2023-06-30T14:33:28.243Z,33.71
2023-06-30T14:37:11.641Z,33.32
2023-06-30T14:39:38.463Z,33.91
2023-06-30T14:42:05.906Z,33.03
2023-06-30T14:45:18.874Z,33.82
2023-06-30T14:47:45.841Z,33.67
2023-06-30T14:50:12.608Z,34.06
2023-06-30T14:52:40.671Z,34.30
2023-06-30T14:55:07.602Z,33.58
2023-06-30T14:57:34.553Z,32.26
2023-06-30T15:00:01.815Z,31.91
2023-06-30T15:02:28.645Z,31.85
2023-06-30T15:04:55.474Z,32.20
2023-06-30T15:07:22.104Z,32.33
2023-06-30T15:09:50.273Z,32.46
2023-06-30T15:12:17.122Z,32.85
2023-06-30T15:14:44.595Z,33.60
2023-06-30T15:17:11.557Z,33.86
2023-06-30T15:19:38.553Z,33.77
2023-06-30T15:22:05.425Z,33.67
2023-06-30T15:24:33.046Z,33.96
2023-06-30T15:26:59.922Z,33.87
2023-06-30T15:29:26.873Z,34.01
2023-06-30T15:31:55.233Z,34.31
2023-06-30T15:34:23.166Z,34.64
2023-06-30T15:36:49.872Z,35.19
2023-06-30T15:39:16.682Z,35.53
2023-06-30T15:42:24.499Z,36.32
2023-06-30T15:45:08.742Z,36.23
2023-06-30T15:47:35.551Z,37.15
2023-06-30T15:50:02.649Z,37.18
2023-06-30T15:52:32.282Z,37.17
2023-06-30T15:55:13.545Z,37.06
2023-06-30T15:57:40.643Z,36.44
2023-06-30T16:00:09.024Z,36.73
2023-06-30T16:02:41.623Z,36.64
2023-06-30T16:05:09.176Z,37.80
2023-06-30T16:07:36.424Z,37.77
2023-06-30T16:10:05.556Z,38.16
2023-06-30T16:12:32.233Z,37.85
2023-06-30T16:15:04.168Z,38.22
2023-06-30T16:18:07.950Z,38.53
2023-06-30T16:20:41.978Z,37.92
2023-06-30T16:23:12.156Z,38.43
2023-06-30T16:25:39.819Z,38.25
2023-06-30T16:28:14.901Z,38.44
2023-06-30T16:30:44.566Z,38.23
2023-06-30T16:33:28.210Z,37.80
2023-06-30T16:35:55.620Z,37.42
2023-06-30T16:38:23.038Z,36.88
2023-06-30T16:40:53.144Z,37.06
2023-06-30T16:43:21.416Z,36.77
2023-06-30T16:45:49.678Z,37.33
2023-06-30T16:48:16.859Z,38.24
2023-06-30T16:59:15.003Z,37.86
2023-06-30T17:06:27.394Z,37.88
2023-06-30T17:08:54.864Z,38.18
2023-06-30T17:11:25.642Z,38.74
2023-06-30T17:13:52.757Z,38.45
2023-06-30T17:22:57.434Z,39.34
2023-06-30T17:25:49.651Z,40.87
2023-06-30T17:35:51.541Z,42.96
2023-06-30T17:46:26.076Z,43.60
2023-06-30T17:49:20.575Z,43.66
2023-06-30T17:51:47.339Z,43.97
2023-06-30T17:55:43.090Z,44.23
2023-06-30T17:58:10.442Z,43.98
2023-06-30T18:00:38.181Z,44.66
2023-06-30T18:03:05.098Z,44.15
2023-06-30T18:05:44.848Z,43.94
2023-06-30T18:08:37.547Z,44.63
2023-06-30T18:11:09.460Z,44.02
2023-06-30T18:13:47.614Z,44.37
2023-06-30T18:16:31.669Z,44.51
2023-06-30T18:23:38.086Z,45.23
2023-06-30T18:26:07.698Z,45.05
2023-06-30T18:28:53.060Z,45.40
2023-06-30T18:31:22.753Z,45.94
2023-06-30T18:33:55.321Z,45.62
2023-06-30T18:36:23.011Z,45.17
2023-06-30T18:38:50.089Z,44.78
2023-06-30T18:41:17.788Z,44.30
2023-06-30T18:43:44.672Z,43.40
2023-06-30T18:46:11.707Z,43.63
2023-06-30T18:48:38.905Z,44.24
2023-06-30T18:51:08.805Z,44.12
2023-06-30T18:53:38.680Z,45.34
2023-06-30T18:56:07.275Z,45.50
2023-06-30T18:58:33.991Z,45.44
2023-06-30T19:01:01.014Z,45.20
2023-06-30T19:03:27.947Z,45.16
2023-06-30T19:06:00.246Z,43.78
2023-06-30T19:08:29.607Z,44.06
2023-06-30T19:10:56.652Z,44.03
2023-06-30T19:13:23.961Z,44.05
2023-06-30T19:15:51.252Z,44.24
2023-06-30T19:21:03.786Z,44.48
2023-06-30T19:23:30.773Z,44.66
2023-06-30T19:26:01.757Z,44.41
2023-06-30T19:28:28.586Z,44.09
2023-06-30T19:31:02.875Z,44.26
2023-06-30T19:33:45.400Z,43.86
2023-06-30T19:36:12.520Z,43.96
2023-06-30T19:38:40.037Z,44.01
2023-06-30T19:41:07.266Z,44.57
2023-06-30T19:43:34.573Z,44.47
2023-06-30T19:46:04.344Z,44.59
2023-06-30T19:48:31.719Z,44.47
2023-06-30T19:50:58.717Z,44.29
2023-06-30T19:53:36.584Z,44.71
2023-06-30T19:56:03.534Z,44.85
2023-06-30T19:58:30.560Z,44.86
2023-06-30T20:00:57.495Z,45.37
2023-06-30T20:03:25.257Z,45.23
2023-06-30T20:05:59.825Z,45.22
2023-06-30T20:08:26.957Z,45.48
2023-06-30T20:10:57.088Z,45.86
2023-06-30T20:13:25.426Z,46.04
2023-06-30T20:15:55.566Z,45.92
2023-06-30T20:18:25.941Z,46.20
2023-06-30T20:21:01.729Z,46.03
2023-06-30T20:23:34.778Z,46.50
2023-06-30T20:26:02.664Z,46.63
2023-06-30T20:28:32.554Z,46.05
2023-06-30T20:30:59.908Z,46.88
2023-06-30T20:33:27.645Z,46.67
2023-06-30T20:35:55.610Z,46.85
2023-06-30T20:38:22.896Z,46.87
2023-06-30T20:40:50.920Z,46.80
2023-06-30T20:43:20.340Z,46.40
2023-06-30T20:45:47.389Z,46.04
2023-06-30T20:48:14.456Z,45.86
2023-06-30T20:50:45.406Z,45.96
2023-06-30T20:53:12.793Z,45.77
2023-06-30T20:55:45.943Z,45.75
2023-06-30T20:58:20.807Z,45.48
2023-06-30T21:00:48.044Z,45.14
2023-06-30T21:03:17.675Z,45.10
2023-06-30T21:05:45.323Z,45.06
2023-06-30T21:08:14.909Z,44.64
2023-06-30T21:10:43.061Z,44.49
2023-06-30T21:13:09.956Z,44.39
2023-06-30T21:15:39.114Z,44.45
2023-06-30T21:18:07.717Z,44.62
2023-06-30T21:20:39.454Z,44.52
2023-06-30T21:23:07.012Z,44.54
2023-06-30T21:25:33.965Z,44.41
2023-06-30T21:28:08.811Z,44.21
2023-06-30T21:30:49.179Z,43.69
2023-06-30T21:33:18.227Z,43.87
2023-06-30T21:35:50.632Z,43.56
2023-06-30T21:38:17.981Z,43.39
2023-06-30T21:40:45.570Z,43.44
2023-06-30T21:43:12.818Z,42.92
2023-06-30T21:45:39.659Z,42.95
2023-06-30T21:48:18.497Z,42.72
2023-06-30T21:50:47.709Z,42.89
2023-06-30T21:53:16.592Z,42.48
2023-06-30T21:55:45.184Z,42.76
2023-06-30T21:58:26.948Z,42.92
2023-06-30T22:00:55.315Z,42.84
2023-06-30T22:03:23.795Z,43.14
2023-06-30T22:05:54.445Z,43.54
2023-06-30T22:08:24.714Z,43.08
2023-06-30T22:10:58.887Z,43.08
2023-06-30T22:13:29.190Z,43.36
2023-06-30T22:15:55.954Z,43.88
2023-06-30T22:18:24.217Z,44.04
2023-06-30T22:20:52.405Z,44.09
2023-06-30T22:23:26.692Z,44.28
2023-06-30T22:25:58.167Z,44.56
2023-06-30T22:28:28.210Z,44.61
2023-06-30T22:30:58.819Z,44.73
2023-06-30T22:33:35.228Z,44.90
2023-06-30T22:36:05.512Z,45.04
2023-06-30T22:39:06.267Z,44.76
2023-06-30T22:41:34.394Z,44.80
2023-06-30T22:44:01.767Z,44.60
2023-06-30T22:46:31.556Z,44.55
2023-06-30T22:49:04.817Z,44.98
2023-06-30T22:51:32.687Z,45.00
2023-06-30T22:54:02.735Z,44.70
2023-06-30T22:56:29.628Z,45.10
2023-06-30T22:58:56.374Z,44.82
2023-06-30T23:01:23.301Z,44.68
2023-06-30T23:03:50.218Z,45.34
2023-06-30T23:06:17.305Z,44.67
2023-06-30T23:08:43.959Z,44.95
2023-06-30T23:11:11.093Z,44.63
2023-06-30T23:13:37.962Z,44.71
2023-06-30T23:16:05.152Z,44.80
2023-06-30T23:18:38.533Z,44.77
2023-06-30T23:21:22.929Z,44.92
2023-06-30T23:23:51.744Z,44.80
2023-06-30T23:26:23.073Z,44.91
2023-06-30T23:28:59.562Z,45.00
2023-06-30T23:31:26.605Z,45.36
2023-06-30T23:33:55.385Z,45.44
2023-06-30T23:36:23.712Z,45.70
2023-06-30T23:38:51.463Z,45.41
2023-06-30T23:41:19.958Z,45.67
2023-06-30T23:43:46.996Z,45.77
2023-06-30T23:46:19.232Z,45.45
2023-06-30T23:48:50.274Z,45.80
2023-06-30T23:51:19.064Z,45.81
2023-06-30T23:53:46.223Z,46.13
2023-06-30T23:56:13.155Z,45.75
2023-06-30T23:58:42.014Z,45.91
